createdAt,value
2018-01-14T00:00:05.787Z,2.14
2018-01-14T00:01:05.734Z,2.22
2018-01-14T00:02:05.746Z,2.22
2018-01-14T00:03:05.683Z,2.28
2018-01-14T00:04:05.695Z,2.14
2018-01-14T00:05:05.642Z,2.29
2018-01-14T00:06:05.651Z,2.18
2018-01-14T00:07:05.589Z,2.20
2018-01-14T00:08:05.595Z,2.28
2018-01-14T00:09:05.585Z,2.24
2018-01-14T00:10:06.449Z,2.18
2018-01-14T00:11:05.524Z,2.18
2018-01-14T00:12:05.503Z,2.20
2018-01-14T00:13:05.499Z,2.20
2018-01-14T00:14:05.422Z,2.28
2018-01-14T00:15:05.406Z,2.28
2018-01-14T00:16:05.406Z,2.26
2018-01-14T00:17:05.392Z,2.25
2018-01-14T00:18:05.349Z,2.26
2018-01-14T00:19:05.335Z,2.22
2018-01-14T00:20:05.283Z,2.14
2018-01-14T00:21:05.253Z,2.22
2018-01-14T00:22:05.251Z,2.15
2018-01-14T00:23:05.207Z,2.24
2018-01-14T00:24:05.215Z,2.20
2018-01-14T00:25:05.192Z,2.26
2018-01-14T00:26:05.188Z,2.20
2018-01-14T00:27:05.129Z,2.29
2018-01-14T00:28:05.082Z,2.22
2018-01-14T00:29:05.066Z,2.18
2018-01-14T00:30:05.036Z,2.25
2018-01-14T00:31:05.085Z,2.17
2018-01-14T00:32:05.012Z,2.15
2018-01-14T00:33:04.957Z,2.20
2018-01-14T00:34:04.973Z,2.22
2018-01-14T00:35:04.944Z,2.32
2018-01-14T00:36:04.894Z,2.32
2018-01-14T00:37:04.883Z,2.22
2018-01-14T00:38:04.852Z,2.14
2018-01-14T00:39:04.823Z,2.15
2018-01-14T00:40:04.842Z,2.18
2018-01-14T00:41:04.781Z,2.29
2018-01-14T00:42:04.771Z,2.18
2018-01-14T00:43:04.726Z,2.17
2018-01-14T00:44:04.718Z,2.24
2018-01-14T00:45:04.704Z,2.20
2018-01-14T00:46:04.658Z,2.17
2018-01-14T00:47:04.625Z,2.17
2018-01-14T00:48:04.637Z,2.15
2018-01-14T00:49:04.585Z,2.18
2018-01-14T00:50:04.566Z,2.20
2018-01-14T00:51:04.531Z,2.15
2018-01-14T00:52:04.614Z,2.11
2018-01-14T00:53:04.487Z,2.07
2018-01-14T00:54:04.482Z,2.08
2018-01-14T00:55:04.476Z,2.08
2018-01-14T00:56:04.408Z,2.18
2018-01-14T00:57:04.393Z,2.07
2018-01-14T00:58:04.366Z,2.17
2018-01-14T00:59:04.365Z,2.14
2018-01-14T01:00:04.338Z,2.15
2018-01-14T01:01:04.289Z,2.14
2018-01-14T01:02:04.267Z,2.10
2018-01-14T01:03:04.233Z,2.18
2018-01-14T01:04:04.248Z,2.10
2018-01-14T01:05:04.216Z,2.11
2018-01-14T01:06:04.187Z,2.13
2018-01-14T01:07:04.141Z,2.10
2018-01-14T01:08:04.134Z,2.15
2018-01-14T01:09:04.094Z,2.24
2018-01-14T01:10:04.135Z,2.13
2018-01-14T01:11:04.095Z,2.17
2018-01-14T01:12:04.069Z,2.13
2018-01-14T01:13:04.075Z,2.13
2018-01-14T01:14:03.982Z,2.14
2018-01-14T01:15:03.980Z,2.17
2018-01-14T01:16:03.939Z,2.13
2018-01-14T01:17:04.010Z,2.10
2018-01-14T01:18:03.884Z,2.18
2018-01-14T01:19:03.900Z,2.15
2018-01-14T01:20:03.828Z,2.14
2018-01-14T01:21:03.824Z,2.13
2018-01-14T01:22:03.777Z,2.10
2018-01-14T01:23:03.776Z,2.18
2018-01-14T01:24:03.747Z,2.17
2018-01-14T01:25:03.790Z,2.14
2018-01-14T01:26:03.699Z,2.17
2018-01-14T01:27:03.674Z,2.15
2018-01-14T01:28:03.640Z,2.10
2018-01-14T01:29:03.624Z,2.13
2018-01-14T01:30:03.617Z,2.13
2018-01-14T01:31:03.582Z,2.15
2018-01-14T01:32:03.570Z,2.18
2018-01-14T01:33:03.596Z,2.15
2018-01-14T01:34:03.526Z,2.11
2018-01-14T01:35:03.549Z,2.14
2018-01-14T01:36:04.483Z,2.04
2018-01-14T01:37:03.447Z,2.06
2018-01-14T01:38:03.452Z,2.15
2018-01-14T01:39:03.376Z,2.08
2018-01-14T01:40:03.350Z,2.08
2018-01-14T01:41:03.356Z,2.10
2018-01-14T01:42:03.318Z,2.07
2018-01-14T01:43:03.286Z,2.02
2018-01-14T01:44:03.267Z,2.06
2018-01-14T01:45:03.249Z,2.06
2018-01-14T01:46:03.213Z,1.97
2018-01-14T01:47:03.951Z,2.00
2018-01-14T01:48:03.175Z,2.02
2018-01-14T01:49:03.187Z,2.04
2018-01-14T01:50:03.119Z,2.07
2018-01-14T01:51:03.110Z,1.99
2018-01-14T01:52:03.064Z,2.02
2018-01-14T01:53:03.055Z,2.00
2018-01-14T01:54:03.056Z,2.06
2018-01-14T01:55:03.050Z,2.08
2018-01-14T01:56:02.968Z,2.06
2018-01-14T01:57:02.984Z,2.04
2018-01-14T01:58:02.969Z,2.06
2018-01-14T01:59:02.889Z,2.07
2018-01-14T02:00:02.888Z,2.00
2018-01-14T02:01:02.868Z,1.99
2018-01-14T02:02:02.833Z,2.02
2018-01-14T02:03:02.845Z,2.07
2018-01-14T02:04:02.808Z,2.04
2018-01-14T02:05:02.772Z,2.07
2018-01-14T02:06:02.760Z,1.99
2018-01-14T02:07:02.707Z,1.97
2018-01-14T02:08:02.721Z,1.92
2018-01-14T02:09:02.663Z,1.92
2018-01-14T02:10:02.632Z,1.92
2018-01-14T02:11:02.612Z,1.92
2018-01-14T02:12:02.616Z,1.89
2018-01-14T02:13:02.559Z,1.99
2018-01-14T02:14:02.559Z,1.92
2018-01-14T02:15:02.554Z,1.95
2018-01-14T02:16:02.517Z,1.97
2018-01-14T02:17:02.473Z,1.94
2018-01-14T02:18:02.425Z,1.97
2018-01-14T02:19:02.430Z,2.04
2018-01-14T02:20:02.390Z,1.97
2018-01-14T02:21:02.394Z,1.95
2018-01-14T02:22:02.348Z,2.00
2018-01-14T02:23:02.324Z,1.95
2018-01-14T02:24:02.298Z,1.94
2018-01-14T02:25:02.281Z,2.00
2018-01-14T02:26:02.251Z,1.92
2018-01-14T02:27:02.264Z,1.94
2018-01-14T02:28:02.193Z,1.91
2018-01-14T02:29:02.175Z,1.92
2018-01-14T02:30:02.181Z,1.89
2018-01-14T02:31:02.161Z,1.89
2018-01-14T02:32:02.126Z,1.92
2018-01-14T02:33:02.084Z,1.89
2018-01-14T02:34:02.072Z,1.92
2018-01-14T02:35:02.085Z,1.88
2018-01-14T02:36:02.027Z,1.88
2018-01-14T02:37:02.012Z,1.87
2018-01-14T02:38:01.962Z,1.89
2018-01-14T02:39:01.968Z,1.92
2018-01-14T02:40:01.909Z,1.87
2018-01-14T02:41:01.937Z,1.89
2018-01-14T02:42:01.899Z,1.89
2018-01-14T02:43:01.833Z,1.95
2018-01-14T02:44:01.818Z,1.94
2018-01-14T02:45:01.785Z,1.99
2018-01-14T02:46:01.790Z,1.97
2018-01-14T02:47:01.749Z,1.88
2018-01-14T02:48:01.747Z,1.94
2018-01-14T02:49:01.692Z,1.91
2018-01-14T02:50:01.673Z,1.94
2018-01-14T02:51:01.671Z,1.77
2018-01-14T02:52:01.618Z,1.70
2018-01-14T02:53:01.616Z,1.67
2018-01-14T02:54:01.611Z,1.73
2018-01-14T02:55:01.595Z,1.70
2018-01-14T02:56:01.522Z,1.63
2018-01-14T02:57:01.515Z,1.67
2018-01-14T02:58:01.470Z,1.59
2018-01-14T02:59:01.446Z,1.60
2018-01-14T03:00:01.427Z,1.56
2018-01-14T03:01:01.409Z,1.55
2018-01-14T03:02:01.382Z,1.59
2018-01-14T03:03:01.349Z,1.62
2018-01-14T03:04:01.403Z,1.63
2018-01-14T03:05:01.316Z,1.59
2018-01-14T03:06:01.293Z,1.56
2018-01-14T03:07:01.254Z,1.49
2018-01-14T03:08:01.240Z,1.59
2018-01-14T03:09:01.198Z,1.53
2018-01-14T03:10:01.210Z,1.58
2018-01-14T03:11:01.182Z,1.48
2018-01-14T03:12:01.143Z,1.55
2018-01-14T03:13:01.124Z,1.55
2018-01-14T03:14:01.088Z,1.53
2018-01-14T03:15:01.068Z,1.50
2018-01-14T03:16:01.033Z,1.50
2018-01-14T03:17:01.023Z,1.50
2018-01-14T03:18:01.015Z,1.49
2018-01-14T03:19:00.996Z,1.50
2018-01-14T03:20:00.933Z,1.45
2018-01-14T03:21:00.972Z,1.49
2018-01-14T03:22:00.883Z,1.53
2018-01-14T03:23:00.898Z,1.50
2018-01-14T03:24:00.863Z,1.48
2018-01-14T03:25:00.812Z,1.50
2018-01-14T03:26:00.788Z,1.42
2018-01-14T03:27:00.768Z,1.52
2018-01-14T03:28:00.728Z,1.45
2018-01-14T03:29:00.743Z,1.45
2018-01-14T03:30:00.698Z,1.42
2018-01-14T03:31:00.691Z,1.41
2018-01-14T03:32:00.678Z,1.45
2018-01-14T03:33:00.623Z,1.45
2018-01-14T03:34:00.622Z,1.49
2018-01-14T03:35:00.598Z,1.40
2018-01-14T03:36:00.550Z,1.42
2018-01-14T03:37:00.520Z,1.49
2018-01-14T03:38:00.502Z,1.52
2018-01-14T03:39:00.468Z,1.48
2018-01-14T03:40:00.505Z,1.53
2018-01-14T03:41:00.411Z,1.48
2018-01-14T03:42:00.398Z,1.52
2018-01-14T03:43:00.425Z,1.48
2018-01-14T03:44:00.347Z,1.52
2018-01-14T03:45:00.322Z,1.50
2018-01-14T03:46:00.337Z,1.56
2018-01-14T03:47:00.301Z,1.50
2018-01-14T03:48:00.278Z,1.62
2018-01-14T03:49:00.249Z,1.50
2018-01-14T03:50:00.210Z,1.56
2018-01-14T03:51:00.168Z,1.60
2018-01-14T03:52:00.149Z,1.60
2018-01-14T03:53:00.162Z,1.48
2018-01-14T03:54:00.096Z,1.59
2018-01-14T03:55:00.103Z,1.50
2018-01-14T03:56:00.077Z,1.50
2018-01-14T03:57:00.036Z,1.53
2018-01-14T03:58:00.029Z,1.67
2018-01-14T03:59:00.012Z,1.42
2018-01-14T03:59:59.966Z,1.56
2018-01-14T04:00:59.940Z,1.59
2018-01-14T04:01:59.933Z,1.49
2018-01-14T04:02:59.874Z,1.55
2018-01-14T04:03:59.870Z,1.56
2018-01-14T04:04:59.837Z,1.53
2018-01-14T04:05:59.833Z,1.56
2018-01-14T04:06:59.785Z,1.50
2018-01-14T04:07:59.785Z,1.55
2018-01-14T04:08:59.768Z,1.53
2018-01-14T04:09:59.708Z,1.52
2018-01-14T04:10:59.684Z,1.45
2018-01-14T04:11:59.671Z,1.56
2018-01-14T04:12:59.631Z,1.56
2018-01-14T04:13:59.605Z,1.49
2018-01-14T04:14:59.634Z,1.49
2018-01-14T04:15:59.597Z,1.58
2018-01-14T04:16:59.553Z,1.58
2018-01-14T04:17:59.508Z,1.58
2018-01-14T04:18:59.495Z,1.56
2018-01-14T04:19:59.458Z,1.62
2018-01-14T04:20:59.481Z,1.58
2018-01-14T04:21:59.455Z,1.66
2018-01-14T04:22:59.400Z,1.62
2018-01-14T04:23:59.422Z,1.56
2018-01-14T04:24:59.349Z,1.48
2018-01-14T04:25:59.311Z,1.50
2018-01-14T04:26:59.295Z,1.59
2018-01-14T04:27:59.973Z,1.49
2018-01-14T04:28:59.292Z,1.45
2018-01-14T04:29:59.228Z,1.58
2018-01-14T04:30:59.263Z,1.52
2018-01-14T04:31:59.182Z,1.56
2018-01-14T04:32:59.167Z,1.56
2018-01-14T04:33:59.135Z,1.53
2018-01-14T04:34:59.139Z,1.56
2018-01-14T04:35:59.123Z,1.58
2018-01-14T04:36:59.045Z,1.58
2018-01-14T04:37:59.019Z,1.53
2018-01-14T04:38:59.002Z,1.59
2018-01-14T04:39:58.983Z,1.62
2018-01-14T04:40:58.951Z,1.60
2018-01-14T04:41:58.939Z,1.56
2018-01-14T04:42:58.907Z,1.56
2018-01-14T04:43:58.904Z,1.49
2018-01-14T04:44:58.872Z,1.53
2018-01-14T04:45:58.861Z,1.50
2018-01-14T04:46:58.820Z,1.52
2018-01-14T04:47:58.780Z,1.60
2018-01-14T04:48:58.752Z,1.60
2018-01-14T04:49:58.761Z,1.68
2018-01-14T04:50:58.698Z,1.53
2018-01-14T04:51:58.698Z,1.55
2018-01-14T04:52:58.692Z,1.59
2018-01-14T04:53:58.667Z,1.50
2018-01-14T04:54:58.678Z,1.53
2018-01-14T04:55:58.625Z,1.50
2018-01-14T04:56:58.596Z,1.49
2018-01-14T04:57:58.562Z,1.44
2018-01-14T04:58:58.531Z,1.52
2018-01-14T04:59:58.520Z,1.53
2018-01-14T05:00:58.461Z,1.58
2018-01-14T05:01:58.434Z,1.60
2018-01-14T05:02:58.433Z,1.62
2018-01-14T05:03:58.387Z,1.59
2018-01-14T05:04:58.372Z,1.60
2018-01-14T05:05:58.351Z,1.55
2018-01-14T05:06:58.317Z,1.42
2018-01-14T05:07:58.326Z,1.60
2018-01-14T05:08:58.268Z,1.59
2018-01-14T05:09:58.255Z,1.63
2018-01-14T05:10:58.228Z,1.63
2018-01-14T05:11:58.207Z,1.60
2018-01-14T05:12:58.183Z,1.52
2018-01-14T05:13:58.169Z,1.50
2018-01-14T05:14:58.162Z,1.62
2018-01-14T05:15:58.105Z,1.59
2018-01-14T05:16:58.083Z,1.53
2018-01-14T05:17:58.057Z,1.59
2018-01-14T05:18:58.027Z,1.55
2018-01-14T05:19:58.014Z,1.59
2018-01-14T05:20:58.026Z,1.67
2018-01-14T05:21:57.962Z,1.55
2018-01-14T05:22:57.962Z,1.59
2018-01-14T05:23:57.934Z,1.45
2018-01-14T05:24:57.873Z,1.59
2018-01-14T05:25:57.888Z,1.52
2018-01-14T05:26:57.830Z,1.55
2018-01-14T05:27:57.819Z,1.53
2018-01-14T05:28:57.824Z,1.52
2018-01-14T05:29:57.762Z,1.53
2018-01-14T05:30:57.735Z,1.52
2018-01-14T05:31:57.734Z,1.52
2018-01-14T05:32:57.703Z,1.48
2018-01-14T05:33:57.678Z,1.59
2018-01-14T05:34:57.697Z,1.56
2018-01-14T05:35:57.648Z,1.50
2018-01-14T05:36:57.600Z,1.59
2018-01-14T05:37:57.571Z,1.55
2018-01-14T05:38:57.544Z,1.50
2018-01-14T05:39:57.550Z,1.58
2018-01-14T05:40:57.515Z,1.53
2018-01-14T05:41:57.491Z,1.53
2018-01-14T05:42:57.467Z,1.45
2018-01-14T05:43:57.434Z,1.58
2018-01-14T05:44:57.408Z,1.50
2018-01-14T05:45:57.369Z,1.50
2018-01-14T05:46:57.368Z,1.49
2018-01-14T05:47:57.326Z,1.49
2018-01-14T05:48:57.300Z,1.55
2018-01-14T05:49:57.336Z,1.58
2018-01-14T05:50:57.283Z,1.48
2018-01-14T05:51:57.238Z,1.45
2018-01-14T05:52:57.210Z,1.45
2018-01-14T05:53:57.195Z,1.50
2018-01-14T05:54:57.259Z,1.49
2018-01-14T05:55:57.148Z,1.53
2018-01-14T05:56:57.129Z,1.55
2018-01-14T05:57:57.091Z,1.55
2018-01-14T05:58:57.071Z,1.52
2018-01-14T05:59:57.024Z,1.52
2018-01-14T06:00:57.028Z,1.50
2018-01-14T06:01:56.981Z,1.53
2018-01-14T06:02:56.975Z,1.52
2018-01-14T06:03:56.981Z,1.52
2018-01-14T06:04:56.955Z,1.52
2018-01-14T06:05:56.910Z,1.49
2018-01-14T06:06:56.878Z,1.52
2018-01-14T06:07:56.848Z,1.48
2018-01-14T06:08:56.838Z,1.56
2018-01-14T06:09:56.837Z,1.48
2018-01-14T06:10:56.782Z,1.44
2018-01-14T06:11:56.784Z,1.32
2018-01-14T06:12:56.753Z,1.19
2018-01-14T06:13:56.704Z,1.23
2018-01-14T06:14:56.682Z,1.14
2018-01-14T06:15:56.695Z,1.10
2018-01-14T06:16:56.647Z,1.14
2018-01-14T06:17:56.595Z,1.10
2018-01-14T06:18:56.586Z,1.13
2018-01-14T06:19:56.558Z,1.12
2018-01-14T06:20:56.526Z,1.16
2018-01-14T06:21:56.518Z,1.12
2018-01-14T06:22:56.478Z,1.16
2018-01-14T06:23:56.469Z,1.04
2018-01-14T06:24:56.487Z,1.08
2018-01-14T06:25:56.427Z,1.12
2018-01-14T06:26:56.355Z,1.10
2018-01-14T06:27:56.343Z,1.10
2018-01-14T06:28:56.347Z,1.22
2018-01-14T06:29:56.317Z,1.08
2018-01-14T06:30:56.291Z,1.12
2018-01-14T06:31:56.269Z,1.12
2018-01-14T06:32:56.215Z,1.20
2018-01-14T06:33:56.202Z,1.26
2018-01-14T06:34:56.229Z,1.23
2018-01-14T06:35:56.177Z,1.23
2018-01-14T06:36:56.155Z,1.28
2018-01-14T06:37:56.089Z,1.24
2018-01-14T06:38:56.073Z,1.22
2018-01-14T06:39:56.054Z,1.20
2018-01-14T06:40:56.047Z,1.30
2018-01-14T06:41:56.083Z,1.31
2018-01-14T06:42:56.020Z,1.30
2018-01-14T06:43:56.012Z,1.35
2018-01-14T06:44:55.938Z,1.30
2018-01-14T06:45:55.943Z,1.31
2018-01-14T06:46:55.883Z,1.38
2018-01-14T06:47:55.855Z,1.32
2018-01-14T06:48:55.832Z,1.32
2018-01-14T06:49:55.884Z,1.40
2018-01-14T06:50:55.809Z,1.37
2018-01-14T06:51:55.769Z,1.40
2018-01-14T06:52:55.820Z,1.42
2018-01-14T06:53:55.705Z,1.45
2018-01-14T06:54:55.692Z,1.45
2018-01-14T06:55:55.647Z,1.40
2018-01-14T06:56:55.637Z,1.38
2018-01-14T06:57:55.606Z,1.48
2018-01-14T06:58:55.576Z,1.38
2018-01-14T06:59:55.566Z,1.42
2018-01-14T07:00:55.535Z,1.53
2018-01-14T07:01:55.561Z,1.50
2018-01-14T07:02:55.556Z,1.45
2018-01-14T07:03:55.474Z,1.48
2018-01-14T07:04:55.481Z,1.53
2018-01-14T07:05:55.452Z,1.44
2018-01-14T07:06:55.404Z,1.52
2018-01-14T07:07:55.405Z,1.45
2018-01-14T07:08:55.363Z,1.52
2018-01-14T07:09:55.350Z,1.48
2018-01-14T07:10:55.377Z,1.44
2018-01-14T07:11:55.319Z,1.48
2018-01-14T07:12:55.314Z,1.50
2018-01-14T07:13:55.236Z,1.50
2018-01-14T07:14:55.221Z,1.41
2018-01-14T07:15:55.166Z,1.44
2018-01-14T07:16:55.176Z,1.41
2018-01-14T07:17:55.122Z,1.40
2018-01-14T07:18:55.092Z,1.38
2018-01-14T07:19:55.102Z,1.48
2018-01-14T07:20:55.063Z,1.37
2018-01-14T07:21:55.037Z,1.41
2018-01-14T07:22:54.991Z,1.44
2018-01-14T07:23:55.066Z,1.41
2018-01-14T07:24:55.002Z,1.38
2018-01-14T07:25:54.944Z,1.42
2018-01-14T07:26:54.899Z,1.41
2018-01-14T07:27:54.895Z,1.49
2018-01-14T07:28:54.884Z,1.42
2018-01-14T07:29:54.830Z,1.44
2018-01-14T07:30:54.856Z,1.52
2018-01-14T07:31:54.823Z,1.50
2018-01-14T07:32:54.846Z,1.53
2018-01-14T07:33:54.771Z,1.48
2018-01-14T07:34:55.259Z,1.56
2018-01-14T07:35:54.701Z,1.53
2018-01-14T07:36:54.789Z,1.53
2018-01-14T07:37:54.652Z,1.52
2018-01-14T07:38:54.644Z,1.49
2018-01-14T07:39:55.123Z,1.50
2018-01-14T07:40:54.592Z,1.52
2018-01-14T07:41:54.611Z,1.50
2018-01-14T07:42:54.549Z,1.50
2018-01-14T07:43:54.524Z,1.45
2018-01-14T07:44:54.473Z,1.53
2018-01-14T07:45:54.467Z,1.45
2018-01-14T07:46:54.438Z,1.53
2018-01-14T07:47:55.043Z,1.50
2018-01-14T07:48:56.069Z,1.49
2018-01-14T07:49:54.421Z,1.44
2018-01-14T07:50:54.384Z,1.42
2018-01-14T07:51:54.300Z,1.44
2018-01-14T07:52:54.264Z,1.41
2018-01-14T07:53:54.285Z,1.44
2018-01-14T07:54:54.215Z,1.41
2018-01-14T07:55:54.221Z,1.35
2018-01-14T07:56:54.183Z,1.52
2018-01-14T07:57:54.185Z,1.52
2018-01-14T07:58:55.049Z,1.52
2018-01-14T07:59:54.276Z,1.56
2018-01-14T08:00:54.095Z,1.58
2018-01-14T08:01:54.156Z,1.49
2018-01-14T08:02:54.124Z,1.50
2018-01-14T08:03:54.020Z,1.53
2018-01-14T08:04:53.969Z,1.53
2018-01-14T08:05:54.005Z,1.50
2018-01-14T08:06:53.928Z,1.48
2018-01-14T08:07:53.980Z,1.48
2018-01-14T08:08:53.903Z,1.48
2018-01-14T08:09:54.573Z,1.56
2018-01-14T08:10:53.875Z,1.62
2018-01-14T08:11:53.800Z,1.59
2018-01-14T08:12:53.773Z,1.63
2018-01-14T08:13:53.765Z,1.71
2018-01-14T08:14:53.797Z,1.63
2018-01-14T08:15:53.720Z,1.70
2018-01-14T08:16:53.707Z,1.66
2018-01-14T08:17:53.677Z,1.68
2018-01-14T08:18:53.757Z,1.66
2018-01-14T08:19:53.613Z,1.73
2018-01-14T08:20:53.583Z,1.70
2018-01-14T08:21:53.590Z,1.73
2018-01-14T08:22:53.596Z,1.67
2018-01-14T09:28:49.463Z,3.16
2018-01-14T09:29:48.341Z,3.10
2018-01-14T09:30:49.230Z,3.21
2018-01-14T09:31:48.004Z,3.16
2018-01-14T09:45:21.705Z,3.19
2018-01-14T09:46:21.055Z,3.18
2018-01-14T09:47:20.815Z,3.10
2018-01-14T09:48:20.859Z,3.18
2018-01-14T09:49:20.649Z,3.23
2018-01-14T09:50:20.694Z,3.16
2018-01-14T09:51:20.543Z,3.21
2018-01-14T09:52:20.573Z,3.13
2018-01-14T09:53:20.599Z,3.19
2018-01-14T09:54:20.536Z,3.21
2018-01-14T09:55:20.496Z,3.16
2018-01-14T09:56:21.161Z,3.07
2018-01-14T09:57:21.254Z,3.07
2018-01-14T10:01:29.470Z,3.16
2018-01-14T10:02:18.194Z,3.19
2018-01-14T10:04:33.642Z,3.26
2018-01-14T10:09:32.411Z,3.21
2018-01-14T10:10:31.542Z,3.29
2018-01-14T10:11:32.480Z,3.29
2018-01-14T10:12:33.014Z,3.41
2018-01-14T10:13:32.465Z,3.34
2018-01-14T10:14:31.950Z,3.58
2018-01-14T10:15:31.885Z,3.51
2018-01-14T10:16:32.356Z,3.59
2018-01-14T10:17:33.083Z,3.65
2018-01-14T10:23:10.376Z,3.80
2018-01-14T10:24:09.882Z,3.80
2018-01-14T10:25:10.307Z,3.91
2018-01-14T10:26:10.869Z,3.95
2018-01-14T10:27:11.069Z,3.99
2018-01-14T10:28:10.744Z,3.99
2018-01-14T10:29:10.196Z,4.02
2018-01-14T10:30:09.782Z,4.01
2018-01-14T10:31:09.767Z,4.06
2018-01-14T10:32:09.695Z,4.05
2018-01-14T10:33:09.699Z,4.04
2018-01-14T10:34:09.650Z,4.06
2018-01-14T10:35:09.609Z,4.01
2018-01-14T10:36:09.570Z,4.06
2018-01-14T10:37:09.553Z,4.14
2018-01-14T10:38:09.670Z,4.04
2018-01-14T10:39:09.497Z,4.13
2018-01-14T10:40:09.535Z,4.17
2018-01-14T10:41:09.505Z,4.24
2018-01-14T10:42:09.448Z,4.38
2018-01-14T10:43:09.414Z,4.42
2018-01-14T10:44:09.560Z,4.48
2018-01-14T10:45:09.381Z,4.48
2018-01-14T10:46:09.422Z,4.58
2018-01-14T10:47:09.328Z,4.58
2018-01-14T10:48:09.334Z,4.56
2018-01-14T10:49:09.351Z,4.70
2018-01-14T10:50:09.276Z,4.70
2018-01-14T10:51:09.617Z,4.67
2018-01-14T10:52:09.414Z,4.73
2018-01-14T10:53:09.280Z,4.67
2018-01-14T10:54:09.304Z,4.75
2018-01-14T10:55:09.639Z,4.74
2018-01-14T10:56:09.229Z,4.66
2018-01-14T10:57:09.117Z,4.70
2018-01-14T10:58:09.082Z,4.62
2018-01-14T10:59:10.001Z,4.59
2018-01-14T11:00:09.844Z,4.67
2018-01-14T11:04:37.000Z,4.77
2018-01-14T11:05:13.991Z,4.75
2018-01-14T11:06:17.318Z,4.74
2018-01-14T11:07:05.992Z,4.78
2018-01-14T11:08:05.363Z,4.86
2018-01-14T11:09:05.908Z,4.87
2018-01-14T11:10:05.416Z,4.92
2018-01-14T11:11:06.247Z,4.96
2018-01-14T11:12:06.317Z,4.96
2018-01-14T11:13:05.526Z,5.04
2018-01-14T11:15:36.448Z,5.15
2018-01-14T11:18:34.311Z,5.21
2018-01-14T11:19:31.719Z,5.08
2018-01-14T11:20:27.490Z,5.20
2018-01-14T11:21:27.238Z,5.15
2018-01-14T11:22:27.210Z,5.15
2018-01-14T11:23:27.682Z,5.17
2018-01-14T11:24:27.204Z,5.25
2018-01-14T11:25:27.376Z,5.25
2018-01-14T11:26:27.472Z,5.21
2018-01-14T11:27:27.075Z,5.26
2018-01-14T11:28:29.325Z,5.25
2018-01-14T11:29:27.346Z,5.30
2018-01-14T11:30:26.775Z,5.25
2018-01-14T11:31:31.576Z,5.21
2018-01-14T11:32:26.497Z,5.28
2018-01-14T11:33:26.092Z,5.30
2018-01-14T11:34:26.072Z,5.38
2018-01-14T11:35:26.197Z,5.33
2018-01-14T11:36:26.039Z,5.33
2018-01-14T11:37:26.173Z,5.44
2018-01-14T11:38:26.038Z,5.47
2018-01-14T11:39:26.801Z,5.47
2018-01-14T11:40:26.358Z,5.48
2018-01-14T11:41:25.957Z,5.48
2018-01-14T11:42:25.845Z,5.50
2018-01-14T11:43:25.873Z,5.50
2018-01-14T11:44:25.931Z,5.47
2018-01-14T11:45:25.956Z,5.41
2018-01-14T11:46:25.922Z,5.43
2018-01-14T11:47:25.801Z,5.33
2018-01-14T11:48:25.913Z,5.38
2018-01-14T11:49:25.669Z,5.29
2018-01-14T11:50:27.193Z,5.26
2018-01-14T11:51:25.928Z,5.28
2018-01-14T11:52:25.731Z,5.26
2018-01-14T11:53:25.635Z,5.26
2018-01-14T11:54:25.698Z,5.23
2018-01-14T11:55:25.551Z,5.29
2018-01-14T11:56:25.807Z,5.28
2018-01-14T11:57:25.543Z,5.32
2018-01-14T11:58:25.685Z,5.32
2018-01-14T11:59:25.747Z,5.44
2018-01-14T12:00:25.589Z,5.47
2018-01-14T12:01:25.529Z,5.47
2018-01-14T12:02:25.573Z,5.48
2018-01-14T12:03:25.434Z,5.61
2018-01-14T12:04:25.422Z,5.71
2018-01-14T12:05:25.414Z,6.02
2018-01-14T12:06:25.459Z,6.42
2018-01-14T12:07:25.408Z,6.51
2018-01-14T12:08:25.450Z,6.66
2018-01-14T12:09:25.468Z,6.66
2018-01-14T12:10:25.221Z,6.67
2018-01-14T12:11:25.435Z,6.66
2018-01-14T12:12:25.307Z,6.64
2018-01-14T12:13:25.324Z,6.63
2018-01-14T12:14:25.216Z,6.67
2018-01-14T12:15:25.235Z,6.63
2018-01-14T12:16:25.208Z,6.59
2018-01-14T12:17:25.139Z,6.63
2018-01-14T12:18:25.081Z,6.67
2018-01-14T12:19:25.076Z,6.54
2018-01-14T12:20:25.044Z,6.52
2018-01-14T12:21:25.085Z,6.49
2018-01-14T12:22:25.298Z,6.38
2018-01-14T12:23:25.227Z,6.42
2018-01-14T12:24:25.052Z,6.41
2018-01-14T12:25:25.869Z,6.44
2018-01-14T12:26:26.187Z,6.48
2018-01-14T12:27:25.107Z,6.56
2018-01-14T12:28:25.238Z,6.67
2018-01-14T12:29:24.918Z,6.69
2018-01-14T12:30:24.906Z,6.77
2018-01-14T12:31:25.350Z,6.77
2018-01-14T12:32:25.494Z,6.87
2018-01-14T12:33:26.475Z,6.87
2018-01-14T12:34:24.708Z,6.93
2018-01-14T12:35:24.722Z,6.92
2018-01-14T12:36:25.457Z,6.89
2018-01-14T12:37:24.739Z,6.92
2018-01-14T12:38:35.255Z,6.89
2018-01-14T12:39:24.736Z,6.87
2018-01-14T12:40:24.741Z,6.62
2018-01-14T12:41:24.573Z,6.62
2018-01-14T12:42:24.651Z,6.52
2018-01-14T12:43:25.005Z,6.46
2018-01-14T12:44:24.636Z,6.41
2018-01-14T12:45:24.472Z,6.42
2018-01-14T12:46:24.632Z,6.42
2018-01-14T12:47:24.650Z,6.48
2018-01-14T12:48:24.416Z,6.45
2018-01-14T12:49:24.546Z,6.49
2018-01-14T12:50:24.644Z,6.46
2018-01-14T12:51:24.568Z,6.57
2018-01-14T12:52:24.543Z,6.70
2018-01-14T12:53:24.482Z,6.74
2018-01-14T12:54:24.430Z,6.87
2018-01-14T12:55:24.369Z,6.79
2018-01-14T12:56:24.306Z,6.79
2018-01-14T12:57:24.653Z,6.64
2018-01-14T12:58:24.321Z,6.67
2018-01-14T12:59:24.454Z,6.45
2018-01-14T13:00:24.284Z,6.26
2018-01-14T13:01:24.209Z,6.05
2018-01-14T13:02:24.373Z,5.97
2018-01-14T13:03:24.146Z,5.83
2018-01-14T13:04:24.262Z,5.75
2018-01-14T13:05:24.333Z,5.69
2018-01-14T13:06:24.304Z,5.65
2018-01-14T13:07:25.301Z,5.66
2018-01-14T13:08:24.088Z,5.72
2018-01-14T13:09:24.996Z,5.75
2018-01-14T13:10:24.159Z,5.73
2018-01-14T13:11:24.043Z,5.75
2018-01-14T13:12:24.177Z,5.66
2018-01-14T13:13:24.026Z,5.68
2018-01-14T13:14:24.035Z,5.61
2018-01-14T13:15:24.003Z,5.61
2018-01-14T13:16:23.901Z,5.56
2018-01-14T13:17:24.001Z,5.57
2018-01-14T13:18:23.911Z,5.48
2018-01-14T13:19:23.833Z,5.54
2018-01-14T13:20:23.792Z,5.47
2018-01-14T13:21:23.884Z,5.64
2018-01-14T13:22:24.596Z,5.64
2018-01-14T13:23:23.820Z,5.50
2018-01-14T13:24:23.761Z,5.50
2018-01-14T13:25:23.703Z,5.50
2018-01-14T13:26:23.539Z,5.50
2018-01-14T13:27:23.684Z,5.48
2018-01-14T13:28:23.654Z,5.43
2018-01-14T13:29:23.669Z,5.38
2018-01-14T13:30:25.161Z,5.43
2018-01-14T13:31:23.544Z,5.33
2018-01-14T13:32:23.650Z,5.36
2018-01-14T13:33:23.594Z,5.21
2018-01-14T13:34:23.645Z,5.25
2018-01-14T13:35:23.704Z,5.15
2018-01-14T13:36:23.497Z,5.21
2018-01-14T13:37:23.416Z,5.08
2018-01-14T13:38:23.359Z,5.05
2018-01-14T13:39:23.400Z,4.93
2018-01-14T13:40:23.457Z,4.94
2018-01-14T13:41:23.310Z,4.93
2018-01-14T13:42:23.286Z,4.90
2018-01-14T13:43:23.214Z,4.89
2018-01-14T13:44:23.281Z,4.94
2018-01-14T13:45:23.282Z,4.97
2018-01-14T13:46:23.107Z,4.94
2018-01-14T13:47:23.077Z,5.04
2018-01-14T13:48:23.146Z,5.00
2018-01-14T13:49:23.125Z,5.00
2018-01-14T13:50:25.757Z,4.90
2018-01-14T13:51:23.176Z,4.94
2018-01-14T13:52:23.099Z,4.84
2018-01-14T13:53:23.044Z,4.73
2018-01-14T13:54:23.155Z,4.73
2018-01-14T13:55:23.229Z,4.71
2018-01-14T13:56:23.029Z,4.70
2018-01-14T13:57:23.039Z,4.70
2018-01-14T13:58:22.950Z,4.71
2018-01-14T13:59:23.116Z,4.77
2018-01-14T14:00:23.303Z,4.71
2018-01-14T14:01:23.910Z,4.80
2018-01-14T14:02:23.169Z,4.80
2018-01-14T14:03:22.863Z,4.80
2018-01-14T14:06:09.911Z,4.84
2018-01-14T14:07:10.086Z,4.90
2018-01-14T14:08:07.252Z,4.90
2018-01-14T14:09:05.416Z,4.90
2018-01-14T14:10:05.893Z,4.84
2018-01-14T14:11:05.913Z,4.77
2018-01-14T14:12:06.456Z,4.78
2018-01-14T14:13:06.463Z,4.77
2018-01-14T14:14:08.002Z,4.80
2018-01-14T14:15:06.042Z,4.86
2018-01-14T14:16:05.453Z,4.75
2018-01-14T14:17:04.976Z,4.71
2018-01-14T14:18:04.929Z,4.77
2018-01-14T14:19:04.892Z,4.75
2018-01-14T14:20:04.862Z,4.74
2018-01-14T14:21:04.948Z,4.60
2018-01-14T14:22:04.889Z,4.70
2018-01-14T14:23:04.860Z,4.59
2018-01-14T14:24:04.818Z,4.56
2018-01-14T14:25:04.720Z,4.53
2018-01-14T14:26:04.850Z,4.60
2018-01-14T14:27:04.649Z,4.60
2018-01-14T14:28:04.886Z,4.44
2018-01-14T14:29:04.826Z,4.42
2018-01-14T14:30:04.776Z,4.45
2018-01-14T14:31:04.782Z,4.32
2018-01-14T14:32:04.503Z,4.23
2018-01-14T14:33:04.579Z,4.22
2018-01-14T14:34:04.489Z,4.23
2018-01-14T14:35:04.626Z,4.24
2018-01-14T14:36:04.596Z,4.22
2018-01-14T14:37:04.551Z,4.26
2018-01-14T14:38:04.488Z,4.22
2018-01-14T14:39:04.696Z,4.13
2018-01-14T14:40:06.383Z,4.12
2018-01-14T14:41:04.469Z,4.16
2018-01-14T14:42:04.844Z,4.20
2018-01-14T14:43:05.016Z,4.06
2018-01-14T14:44:04.438Z,4.19
2018-01-14T14:45:04.366Z,4.06
2018-01-14T14:46:04.518Z,4.23
2018-01-14T14:47:04.455Z,4.22
2018-01-14T14:48:04.280Z,4.24
2018-01-14T14:49:04.812Z,4.14
2018-01-14T14:50:04.562Z,4.16
2018-01-14T14:51:04.468Z,4.20
2018-01-14T14:52:04.131Z,4.16
2018-01-14T14:53:04.205Z,4.16
2018-01-14T14:54:05.692Z,4.04
2018-01-14T14:55:03.991Z,4.19
2018-01-14T14:56:04.083Z,4.04